createdAt,value
2019-06-20T00:02:19.675Z,2.45
2019-06-20T00:04:49.073Z,2.27
2019-06-20T00:07:16.802Z,2.07
2019-06-20T00:09:44.544Z,2.30
2019-06-20T00:12:12.174Z,2.52
2019-06-20T00:14:41.747Z,2.90
2019-06-20T00:17:09.465Z,2.52
2019-06-20T00:19:36.997Z,2.50
2019-06-20T00:22:04.652Z,2.77
2019-06-20T00:24:32.277Z,2.77
2019-06-20T00:27:02.755Z,2.47
2019-06-20T00:29:30.395Z,2.37
2019-06-20T00:31:58.012Z,2.40
2019-06-20T00:34:25.647Z,2.43
2019-06-20T00:36:53.237Z,2.17
2019-06-20T00:39:20.878Z,2.23
2019-06-20T00:41:48.503Z,2.40
2019-06-20T00:44:16.161Z,2.60
2019-06-20T00:46:43.765Z,2.33
2019-06-20T00:49:11.376Z,2.10
2019-06-20T00:51:39.107Z,2.60
2019-06-20T00:54:06.708Z,2.50
2019-06-20T00:56:34.334Z,3.13
2019-06-20T00:59:02.009Z,2.30
2019-06-20T01:01:29.749Z,2.37
2019-06-20T01:03:57.339Z,2.45
2019-06-20T01:06:25.079Z,2.70
2019-06-20T01:08:52.798Z,2.80
2019-06-20T01:11:22.205Z,3.62
2019-06-20T01:13:52.897Z,2.80
2019-06-20T01:16:20.822Z,3.07
2019-06-20T01:18:50.243Z,2.90
2019-06-20T01:21:19.183Z,3.20
2019-06-20T01:23:46.762Z,3.47
2019-06-20T01:26:14.351Z,3.20
2019-06-20T01:28:41.969Z,2.67
2019-06-20T01:31:09.579Z,2.77
2019-06-20T01:33:37.321Z,2.87
2019-06-20T01:36:04.908Z,2.90
2019-06-20T01:38:32.643Z,2.30
2019-06-20T01:41:05.852Z,2.67
2019-06-20T01:43:31.141Z,2.90
2019-06-20T01:45:58.747Z,3.00
2019-06-20T01:50:57.499Z,2.50
2019-06-20T01:53:25.204Z,2.52
2019-06-20T01:55:52.847Z,2.50
2019-06-20T01:58:20.445Z,2.47
2019-06-20T02:00:48.873Z,2.70
2019-06-20T02:03:16.989Z,2.73
2019-06-20T02:05:44.995Z,2.50
2019-06-20T02:08:12.804Z,2.30
2019-06-20T02:10:40.415Z,2.97
2019-06-20T02:13:08.006Z,1.85
2019-06-20T02:15:35.618Z,1.80
2019-06-20T02:18:03.635Z,2.12
2019-06-20T02:20:35.238Z,2.03
2019-06-20T02:23:02.997Z,2.13
2019-06-20T02:25:30.675Z,2.13
2019-06-20T02:27:58.263Z,2.57
2019-06-20T02:30:25.957Z,2.43
2019-06-20T02:32:53.582Z,2.30
2019-06-20T02:35:21.195Z,1.93
2019-06-20T02:37:48.793Z,2.27
2019-06-20T02:40:16.496Z,2.30
2019-06-20T02:42:44.104Z,2.30
2019-06-20T02:45:12.229Z,2.23
2019-06-20T02:47:39.838Z,2.07
2019-06-20T02:50:08.231Z,2.20
2019-06-20T02:52:35.853Z,3.10
2019-06-20T02:55:04.293Z,2.33
2019-06-20T02:57:31.957Z,2.20
2019-06-20T02:59:59.583Z,2.23
2019-06-20T03:02:27.221Z,1.90
2019-06-20T03:04:54.835Z,2.22
2019-06-20T03:07:22.415Z,2.43
2019-06-20T03:09:50.025Z,2.13
2019-06-20T03:12:17.691Z,2.13
2019-06-20T03:14:45.955Z,2.20
2019-06-20T03:17:13.592Z,2.23
2019-06-20T03:19:41.203Z,2.50
2019-06-20T03:22:08.803Z,2.30
2019-06-20T03:24:36.403Z,2.30
2019-06-20T03:27:04.130Z,2.40
2019-06-20T03:29:31.714Z,2.57
2019-06-20T03:31:59.321Z,2.30
2019-06-20T03:34:26.971Z,1.90
2019-06-20T03:36:54.574Z,2.17
2019-06-20T03:39:22.209Z,2.73
2019-06-20T03:41:49.827Z,2.23
2019-06-20T03:44:17.445Z,2.23
2019-06-20T03:46:45.026Z,2.03
2019-06-20T03:49:12.631Z,2.10
2019-06-20T03:51:40.228Z,2.10
2019-06-20T03:54:07.847Z,2.27
2019-06-20T03:56:36.532Z,2.27
2019-06-20T03:59:04.187Z,2.00
2019-06-20T04:01:31.797Z,2.50
2019-06-20T04:04:00.478Z,2.10
2019-06-20T04:06:28.082Z,2.27
2019-06-20T04:08:55.685Z,2.17
2019-06-20T04:11:23.295Z,2.00
2019-06-20T04:13:50.939Z,2.43
2019-06-20T04:16:18.573Z,2.40
2019-06-20T04:18:46.145Z,2.27
2019-06-20T04:21:13.841Z,2.50
2019-06-20T04:23:41.528Z,2.27
2019-06-20T04:26:09.235Z,2.90
2019-06-20T04:28:36.875Z,2.57
2019-06-20T04:31:04.480Z,2.70
2019-06-20T04:33:32.032Z,2.77
2019-06-20T04:35:59.603Z,2.80
2019-06-20T04:38:27.200Z,3.10
2019-06-20T04:40:54.838Z,2.90
2019-06-20T04:43:22.463Z,2.92
2019-06-20T04:46:05.837Z,3.07
2019-06-20T04:48:33.432Z,3.13
2019-06-20T04:51:01.037Z,2.40
2019-06-20T04:53:28.685Z,2.60
2019-06-20T04:55:56.309Z,3.17
2019-06-20T04:58:23.951Z,2.60
2019-06-20T05:00:51.615Z,2.87
2019-06-20T05:03:19.183Z,2.97
2019-06-20T05:05:46.768Z,2.70
2019-06-20T05:08:14.393Z,2.87
2019-06-20T05:10:42.037Z,2.70
2019-06-20T05:13:09.649Z,2.60
2019-06-20T05:15:51.518Z,2.92
2019-06-20T05:18:06.678Z,2.63
2019-06-20T05:20:34.328Z,2.70
2019-06-20T05:23:01.921Z,2.87
2019-06-20T05:25:29.527Z,2.77
2019-06-20T05:27:57.146Z,2.35
2019-06-20T05:30:24.745Z,3.00
2019-06-20T05:32:52.530Z,2.77
2019-06-20T05:35:20.131Z,2.50
2019-06-20T05:37:47.757Z,3.37
2019-06-20T05:40:15.580Z,2.50
2019-06-20T05:42:43.205Z,2.83
2019-06-20T05:45:10.807Z,2.60
2019-06-20T05:47:38.451Z,2.43
2019-06-20T05:50:06.089Z,2.77
2019-06-20T05:52:33.719Z,2.90
2019-06-20T05:55:01.302Z,2.60
2019-06-20T05:57:28.917Z,3.35
2019-06-20T05:59:56.518Z,2.77
2019-06-20T06:02:24.164Z,2.50
2019-06-20T06:04:51.779Z,2.87
2019-06-20T06:07:19.412Z,2.63
2019-06-20T06:09:47.023Z,2.97
2019-06-20T06:12:14.659Z,2.97
2019-06-20T06:14:42.653Z,2.60
2019-06-20T06:17:10.497Z,2.52
2019-06-20T06:19:38.069Z,2.30
2019-06-20T06:22:05.689Z,2.35
2019-06-20T06:24:33.338Z,2.00
2019-06-20T06:27:00.980Z,2.15
2019-06-20T06:29:28.595Z,2.10
2019-06-20T06:31:56.201Z,2.05
2019-06-20T06:34:23.903Z,2.30
2019-06-20T06:36:51.480Z,2.30
2019-06-20T06:39:19.100Z,2.77
2019-06-20T06:41:46.750Z,2.35
2019-06-20T06:44:14.381Z,2.60
2019-06-20T06:46:47.203Z,2.85
2019-06-20T06:49:11.495Z,2.57
2019-06-20T06:51:39.135Z,2.35
2019-06-20T06:54:06.801Z,2.50
2019-06-20T06:56:34.416Z,2.15
2019-06-20T06:59:02.045Z,2.60
2019-06-20T07:01:29.943Z,2.83
2019-06-20T07:03:57.578Z,2.67
2019-06-20T07:06:25.235Z,2.83
2019-06-20T07:08:52.865Z,2.47
2019-06-20T07:11:20.483Z,2.80
2019-06-20T07:13:48.101Z,2.72
2019-06-20T07:16:15.724Z,2.90
2019-06-20T07:18:43.401Z,3.00
2019-06-20T07:21:10.997Z,2.40
2019-06-20T07:23:38.650Z,2.75
2019-06-20T07:26:06.300Z,2.62
2019-06-20T07:28:33.920Z,2.62
2019-06-20T07:31:01.517Z,2.00
2019-06-20T07:33:29.291Z,2.52
2019-06-20T07:35:56.956Z,2.75
2019-06-20T07:38:24.589Z,3.17
2019-06-20T07:40:52.258Z,2.83
2019-06-20T07:43:19.921Z,2.30
2019-06-20T07:46:01.466Z,2.65
2019-06-20T07:48:17.030Z,3.40
2019-06-20T07:50:44.798Z,3.30
2019-06-20T07:53:12.445Z,2.67
2019-06-20T07:55:40.102Z,3.50
2019-06-20T07:58:09.508Z,3.05
2019-06-20T08:00:37.162Z,3.15
2019-06-20T08:03:04.754Z,3.22
2019-06-20T08:05:32.426Z,2.90
2019-06-20T08:08:00.100Z,3.35
2019-06-20T08:10:27.912Z,2.85
2019-06-20T08:12:55.528Z,2.80
2019-06-20T08:15:23.389Z,2.60
2019-06-20T08:17:51.048Z,3.05
2019-06-20T08:20:18.749Z,3.25
2019-06-20T08:22:46.394Z,3.12
2019-06-20T08:25:14.482Z,3.10
2019-06-20T08:27:51.398Z,2.85
2019-06-20T08:30:27.854Z,3.20
2019-06-20T08:32:59.242Z,3.00
2019-06-20T08:35:26.952Z,3.20
2019-06-20T08:37:57.304Z,3.12
2019-06-20T08:40:25.845Z,3.15
2019-06-20T08:42:55.318Z,3.15
2019-06-20T08:45:24.997Z,3.20
2019-06-20T08:47:52.649Z,3.12
2019-06-20T08:50:20.430Z,3.00
2019-06-20T08:52:48.068Z,3.20
2019-06-20T08:55:15.901Z,3.00
2019-06-20T08:57:43.556Z,3.10
2019-06-20T09:00:11.717Z,2.60
2019-06-20T09:02:39.337Z,3.02
2019-06-20T09:05:07.231Z,2.80
2019-06-20T09:07:35.123Z,2.90
2019-06-20T09:10:04.288Z,3.47
2019-06-20T09:12:31.963Z,3.17
2019-06-20T09:14:59.617Z,3.10
2019-06-20T09:17:27.264Z,2.90
2019-06-20T09:19:55.859Z,3.25
2019-06-20T09:22:23.597Z,2.90
2019-06-20T09:24:52.019Z,3.65
2019-06-20T09:27:20.709Z,3.05
2019-06-20T09:29:48.334Z,3.40
2019-06-20T09:32:15.937Z,3.40
2019-06-20T09:34:43.677Z,3.25
2019-06-20T09:37:12.516Z,3.72
2019-06-20T09:39:40.136Z,3.83
2019-06-20T09:42:07.773Z,3.10
2019-06-20T09:44:35.395Z,2.90
2019-06-20T09:47:03.105Z,3.25
2019-06-20T09:49:30.727Z,3.00
2019-06-20T09:51:59.407Z,2.70
2019-06-20T09:54:27.047Z,3.20
2019-06-20T09:56:57.969Z,3.15
2019-06-20T09:59:27.825Z,3.30
2019-06-20T10:01:56.390Z,3.62
2019-06-20T10:04:24.068Z,3.22
2019-06-20T10:06:52.317Z,3.52
2019-06-20T10:09:20.055Z,3.92
2019-06-20T10:11:47.964Z,3.52
2019-06-20T10:14:15.898Z,3.50
2019-06-20T10:16:47.440Z,3.10
2019-06-20T10:19:13.521Z,3.45
2019-06-20T10:21:41.240Z,3.67
2019-06-20T10:24:08.845Z,3.72
2019-06-20T10:26:37.788Z,3.72
2019-06-20T10:29:05.485Z,3.70
2019-06-20T10:31:33.128Z,4.37
2019-06-20T10:34:00.760Z,4.35
2019-06-20T10:36:28.510Z,4.03
2019-06-20T10:38:56.936Z,4.37
2019-06-20T10:41:24.646Z,5.45
2019-06-20T10:43:52.381Z,4.72
2019-06-20T10:46:20.023Z,4.60
2019-06-20T10:48:47.978Z,4.42
2019-06-20T10:51:45.798Z,4.42
2019-06-20T10:54:13.641Z,4.90
2019-06-20T10:56:42.281Z,5.60
2019-06-20T10:59:10.986Z,5.67
2019-06-20T11:01:39.877Z,5.30
2019-06-20T11:04:08.075Z,5.42
2019-06-20T11:06:35.696Z,5.50
2019-06-20T11:09:07.303Z,5.62
2019-06-20T11:11:34.893Z,5.62
2019-06-20T11:14:02.596Z,6.00
2019-06-20T11:16:30.249Z,5.35
2019-06-20T11:18:57.895Z,6.25
2019-06-20T11:21:25.524Z,5.40
2019-06-20T11:23:53.148Z,5.10
2019-06-20T11:26:20.813Z,5.67
2019-06-20T11:28:50.099Z,5.87
2019-06-20T11:31:17.788Z,6.42
2019-06-20T11:33:45.425Z,6.15
2019-06-20T11:36:13.165Z,5.10
2019-06-20T11:38:40.823Z,6.22
2019-06-20T11:41:08.500Z,6.33
2019-06-20T11:43:36.325Z,6.42
2019-06-20T11:46:04.073Z,6.85
2019-06-20T11:48:31.720Z,7.35
2019-06-20T11:50:59.336Z,6.67
2019-06-20T11:53:28.155Z,7.00
2019-06-20T11:55:55.834Z,7.90
2019-06-20T11:58:23.623Z,7.50
2019-06-20T12:01:03.079Z,7.30
2019-06-20T12:03:20.842Z,6.90
2019-06-20T12:05:49.700Z,6.53
2019-06-20T12:08:17.582Z,6.58
2019-06-20T12:10:45.279Z,5.97
2019-06-20T12:13:13.114Z,5.35
2019-06-20T12:15:41.658Z,6.30
2019-06-20T12:18:10.453Z,5.80
2019-06-20T12:20:39.592Z,5.60
2019-06-20T12:23:07.600Z,5.70
2019-06-20T12:25:35.315Z,5.20
2019-06-20T12:28:03.093Z,6.35
2019-06-20T12:30:31.498Z,6.78
2019-06-20T12:32:59.648Z,5.15
2019-06-20T12:35:27.303Z,5.65
2019-06-20T12:37:54.969Z,5.70
2019-06-20T12:40:23.131Z,5.75
2019-06-20T12:42:50.774Z,5.60
2019-06-20T12:45:20.518Z,5.42
2019-06-20T12:47:48.147Z,4.25
2019-06-20T12:50:16.275Z,4.55
2019-06-20T12:52:45.448Z,4.80
2019-06-20T12:55:13.714Z,4.42
2019-06-20T12:57:42.436Z,4.50
2019-06-20T13:00:13.866Z,4.78
2019-06-20T13:02:42.504Z,4.75
2019-06-20T13:05:11.475Z,4.17
2019-06-20T13:07:40.494Z,5.30
2019-06-20T13:10:09.124Z,4.65
2019-06-20T13:12:40.651Z,4.10
2019-06-20T13:15:09.990Z,5.03
2019-06-20T13:17:39.253Z,4.53
2019-06-20T13:20:07.685Z,4.33
2019-06-20T13:22:35.325Z,4.20
2019-06-20T13:25:04.472Z,4.28
2019-06-20T13:27:32.120Z,4.15
2019-06-20T13:29:59.776Z,4.75
2019-06-20T13:32:27.404Z,4.37
2019-06-20T13:34:56.922Z,5.28
2019-06-20T13:37:25.563Z,4.80
2019-06-20T13:39:53.176Z,5.45
2019-06-20T13:42:20.821Z,5.40
2019-06-20T13:44:49.524Z,5.35
2019-06-20T13:47:17.138Z,4.78
2019-06-20T13:49:45.833Z,5.28
2019-06-20T13:52:13.704Z,5.80
2019-06-20T13:54:43.027Z,4.40
2019-06-20T13:57:10.796Z,4.97
2019-06-20T13:59:38.529Z,4.62
2019-06-20T14:02:07.116Z,4.60
2019-06-20T14:04:35.039Z,5.20
2019-06-20T14:07:02.675Z,4.72
2019-06-20T14:09:32.478Z,4.78
2019-06-20T14:12:01.894Z,4.85
2019-06-20T14:14:29.634Z,4.20
2019-06-20T14:16:57.299Z,4.28
2019-06-20T14:19:24.984Z,4.05
2019-06-20T14:21:52.658Z,4.25
2019-06-20T14:24:20.303Z,4.20
2019-06-20T14:26:48.197Z,5.75
2019-06-20T14:29:16.048Z,4.67
2019-06-20T14:31:44.368Z,4.72
2019-06-20T14:34:13.257Z,4.58
2019-06-20T14:36:40.978Z,4.92
2019-06-20T14:39:08.670Z,5.03
2019-06-20T14:41:36.301Z,4.47
2019-06-20T14:44:04.002Z,5.30
2019-06-20T14:46:31.634Z,5.70
2019-06-20T14:48:59.312Z,4.90
2019-06-20T14:51:26.962Z,4.60
2019-06-20T14:53:54.624Z,4.70
2019-06-20T14:56:22.240Z,4.72
2019-06-20T14:58:51.442Z,4.17
2019-06-20T15:01:19.318Z,4.65
2019-06-20T15:03:47.416Z,4.90
2019-06-20T15:06:16.486Z,5.22
2019-06-20T15:08:45.375Z,4.45
2019-06-20T15:11:13.486Z,4.37
2019-06-20T15:13:41.132Z,4.50
2019-06-20T15:16:08.866Z,6.25
2019-06-20T15:18:37.875Z,4.50
2019-06-20T15:21:05.582Z,4.12
2019-06-20T15:23:33.380Z,4.78
2019-06-20T15:26:00.996Z,5.92
2019-06-20T15:28:29.871Z,5.28
2019-06-20T15:30:57.545Z,5.55
2019-06-20T15:33:25.165Z,5.40
2019-06-20T15:35:53.522Z,4.47
2019-06-20T15:38:22.307Z,28.75
2019-06-20T15:40:51.425Z,6.17
2019-06-20T15:43:19.385Z,4.85
2019-06-20T15:45:48.357Z,4.95
2019-06-20T15:48:16.504Z,4.50
2019-06-20T15:50:44.155Z,4.08
2019-06-20T15:53:11.780Z,4.17
2019-06-20T15:55:58.890Z,4.67
2019-06-20T15:58:26.542Z,4.33
2019-06-20T16:00:54.186Z,4.42
2019-06-20T16:03:21.805Z,3.60
2019-06-20T16:05:49.458Z,3.72
2019-06-20T16:08:17.091Z,3.42
2019-06-20T16:10:44.752Z,4.12
2019-06-20T16:13:12.386Z,4.50
2019-06-20T16:15:40.142Z,4.25
2019-06-20T16:18:07.778Z,5.83
2019-06-20T16:20:35.425Z,4.30
2019-06-20T16:23:03.094Z,4.12
2019-06-20T16:25:30.843Z,3.75
2019-06-20T16:27:58.468Z,4.00
2019-06-20T16:30:26.334Z,3.42
2019-06-20T16:32:53.959Z,4.12
2019-06-20T16:35:21.595Z,4.20
2019-06-20T16:37:49.263Z,3.70
2019-06-20T16:40:23.977Z,3.90
2019-06-20T16:42:51.727Z,4.20
2019-06-20T16:45:19.388Z,4.20
2019-06-20T16:47:47.066Z,3.83
2019-06-20T16:50:15.688Z,4.00
2019-06-20T16:52:43.294Z,4.08
2019-06-20T16:55:11.391Z,4.45
2019-06-20T16:57:39.027Z,4.62
2019-06-20T17:00:07.382Z,4.55
2019-06-20T17:02:35.133Z,4.25
2019-06-20T17:05:02.793Z,4.80
2019-06-20T17:07:30.453Z,4.40
2019-06-20T17:09:58.084Z,4.72
2019-06-20T17:12:25.727Z,4.50
2019-06-20T17:14:53.437Z,4.42
2019-06-20T17:17:21.104Z,4.83
2019-06-20T17:19:48.716Z,4.53
2019-06-20T17:22:16.385Z,4.65
2019-06-20T17:24:43.983Z,5.17
2019-06-20T17:27:11.691Z,4.22
2019-06-20T17:29:39.293Z,4.17
2019-06-20T17:32:08.074Z,4.67
2019-06-20T17:34:35.699Z,4.47
2019-06-20T17:37:03.294Z,4.10
2019-06-20T17:39:30.972Z,5.30
2019-06-20T17:41:58.915Z,5.15
2019-06-20T17:44:27.541Z,4.30
2019-06-20T17:46:55.266Z,4.83
2019-06-20T17:49:23.035Z,5.00
2019-06-20T17:51:50.662Z,4.53
2019-06-20T17:54:18.454Z,4.58
2019-06-20T17:56:46.144Z,4.75
2019-06-20T17:59:13.783Z,4.90
2019-06-20T18:01:41.406Z,4.65
2019-06-20T18:04:13.586Z,4.60
2019-06-20T18:06:38.538Z,4.97
2019-06-20T18:09:06.389Z,4.50
2019-06-20T18:11:35.984Z,5.10
2019-06-20T18:14:03.680Z,4.60
2019-06-20T18:16:31.308Z,4.22
2019-06-20T18:18:58.990Z,4.80
2019-06-20T18:21:26.717Z,4.70
2019-06-20T18:23:54.399Z,5.05
2019-06-20T18:26:22.073Z,4.92
2019-06-20T18:28:49.782Z,5.47
2019-06-20T18:31:17.480Z,5.00
2019-06-20T18:33:45.125Z,5.83
2019-06-20T18:36:12.773Z,5.12
2019-06-20T18:38:40.435Z,5.75
2019-06-20T18:41:08.204Z,6.03
2019-06-20T18:43:35.833Z,6.47
2019-06-20T18:46:03.573Z,6.08
2019-06-20T18:48:31.243Z,6.22
2019-06-20T18:50:58.939Z,5.72
2019-06-20T18:53:26.631Z,5.90
2019-06-20T18:55:54.248Z,5.90
2019-06-20T18:58:21.922Z,6.12
2019-06-20T19:00:49.585Z,6.55
2019-06-20T19:03:17.543Z,6.08
2019-06-20T19:05:45.397Z,6.72
2019-06-20T19:08:13.028Z,5.92
2019-06-20T19:10:40.709Z,5.55
2019-06-20T19:13:08.424Z,6.03
2019-06-20T19:15:37.218Z,5.67
2019-06-20T19:18:04.960Z,5.58
2019-06-20T19:20:32.742Z,6.33
2019-06-20T19:23:00.501Z,6.28
2019-06-20T19:25:28.189Z,6.45
2019-06-20T19:27:55.845Z,5.72
2019-06-20T19:30:33.358Z,6.33
2019-06-20T19:33:02.145Z,5.22
2019-06-20T19:35:29.862Z,5.47
2019-06-20T19:37:57.505Z,5.58
2019-06-20T19:40:29.183Z,5.47
2019-06-20T19:42:57.522Z,5.90
2019-06-20T19:45:25.574Z,5.72
2019-06-20T19:47:53.240Z,5.10
2019-06-20T19:50:20.983Z,5.65
2019-06-20T19:52:48.644Z,5.92
2019-06-20T19:55:16.548Z,6.08
2019-06-20T19:57:44.247Z,6.25
2019-06-20T20:00:12.392Z,4.97
2019-06-20T20:02:40.147Z,6.53
2019-06-20T20:05:18.520Z,5.90
2019-06-20T20:07:37.993Z,6.53
2019-06-20T20:10:06.123Z,5.78
2019-06-20T20:12:33.758Z,5.33
2019-06-20T20:15:01.657Z,6.08
2019-06-20T20:17:30.651Z,5.92
2019-06-20T20:19:58.374Z,5.75
2019-06-20T20:22:26.036Z,5.85
2019-06-20T20:24:53.772Z,5.87
2019-06-20T20:27:21.482Z,6.45
2019-06-20T20:29:49.158Z,6.03
2019-06-20T20:32:16.789Z,6.60
2019-06-20T20:34:44.437Z,6.03
2019-06-20T20:37:12.090Z,6.47
2019-06-20T20:39:39.755Z,6.58
2019-06-20T20:42:07.381Z,6.45
2019-06-20T20:44:35.058Z,6.95
2019-06-20T20:47:02.705Z,6.65
2019-06-20T20:49:30.367Z,6.67
2019-06-20T20:51:57.992Z,6.45
2019-06-20T20:54:25.623Z,6.62
2019-06-20T20:56:53.278Z,6.70
2019-06-20T20:59:20.985Z,7.08
2019-06-20T21:01:48.714Z,6.90
2019-06-20T21:04:16.405Z,6.90
2019-06-20T21:06:44.043Z,6.45
2019-06-20T21:09:11.670Z,6.75
2019-06-20T21:11:39.444Z,6.20
2019-06-20T21:14:07.112Z,6.97
2019-06-20T21:16:34.780Z,6.47
2019-06-20T21:19:02.401Z,6.55
2019-06-20T21:21:30.046Z,6.55
2019-06-20T21:23:57.722Z,5.90
2019-06-20T21:26:25.364Z,5.95
2019-06-20T21:28:53.043Z,6.33
2019-06-20T21:31:20.738Z,6.20
2019-06-20T21:33:48.478Z,6.20
2019-06-20T21:36:16.062Z,6.03
2019-06-20T21:38:43.714Z,5.65
2019-06-20T21:41:11.369Z,5.67
2019-06-20T21:43:38.996Z,6.30
2019-06-20T21:46:07.016Z,6.10
2019-06-20T21:48:34.748Z,5.95
2019-06-20T21:51:02.380Z,6.80
2019-06-20T21:53:30.019Z,6.15
2019-06-20T21:55:57.635Z,5.67
2019-06-20T21:58:25.365Z,5.92
2019-06-20T22:00:56.417Z,5.65
2019-06-20T22:03:24.231Z,5.70
2019-06-20T22:05:52.875Z,5.97
2019-06-20T22:08:20.485Z,6.03
2019-06-20T22:10:48.261Z,6.40
2019-06-20T22:13:15.908Z,5.42
2019-06-20T22:15:43.545Z,5.85
2019-06-20T22:18:11.203Z,5.47
2019-06-20T22:20:38.850Z,5.60
2019-06-20T22:23:06.476Z,5.22
2019-06-20T22:25:34.163Z,5.85
2019-06-20T22:28:01.948Z,6.17
2019-06-20T22:30:40.576Z,5.90
2019-06-20T22:33:08.255Z,6.05
2019-06-20T22:35:35.870Z,5.58
2019-06-20T22:38:03.506Z,5.90
2019-06-20T22:40:31.112Z,5.33
2019-06-20T22:42:58.777Z,5.80
2019-06-20T22:45:26.529Z,5.22
2019-06-20T22:47:54.162Z,5.62
2019-06-20T22:50:21.819Z,5.83
2019-06-20T22:52:49.489Z,5.95
2019-06-20T22:55:17.121Z,6.33
2019-06-20T22:57:44.774Z,5.92
2019-06-20T23:00:12.912Z,6.10
2019-06-20T23:02:40.592Z,5.00
2019-06-20T23:05:08.810Z,5.25
2019-06-20T23:07:36.419Z,5.92
2019-06-20T23:10:10.573Z,6.47
2019-06-20T23:12:34.008Z,5.70
2019-06-20T23:15:01.675Z,5.42
2019-06-20T23:17:29.271Z,5.35
2019-06-20T23:19:56.865Z,5.00
2019-06-20T23:22:25.682Z,5.28
2019-06-20T23:24:53.294Z,5.70
2019-06-20T23:27:20.932Z,5.30
2019-06-20T23:29:48.577Z,5.80
2019-06-20T23:32:16.241Z,5.15
2019-06-20T23:34:43.944Z,6.10
2019-06-20T23:37:13.080Z,5.37
2019-06-20T23:39:42.156Z,4.87
2019-06-20T23:42:10.058Z,4.58
2019-06-20T23:44:37.668Z,4.70
2019-06-20T23:47:05.352Z,5.00
2019-06-20T23:49:33.053Z,5.03
2019-06-20T23:52:05.934Z,5.15
2019-06-20T23:54:33.542Z,4.50
2019-06-20T23:57:01.163Z,4.78
2019-06-20T23:59:28.775Z,4.78
